Terminal Aerodrome Forecast
Issued by NWS Sioux Falls, SD

Home | Current Version | Previous Version | Graphics & Text | Print | Product List | Glossary On
Versions: 1 2 3 4 5 6 7 8 9 10 11 12 13
000
FTUS43 KFSD 021733
TAFFSD
TAF
KFSD 021733Z 0218/0318 16013G18KT P6SM BKN120
     FM022100 17016G24KT P6SM SCT040 BKN080
     FM030400 17014G22KT P6SM SCT025 BKN040
     FM030700 17013KT P6SM OVC015
     FM031000 20008KT 3SM -SN OVC010
     FM031700 32020G33KT 3SM -SN BLSN OVC010=

USA.gov is the U.S. government's official web portal to all federal, state and local government web resources and services.